Time;durP1;ratioP1;P1;durP2;ratioP2;P2;SDS_P1;SDS_P2;PMS_P1;PMS_P2;Temp;Humidity;BMP_temperature;BMP_pressure;BME280_temperature;BME280_humidity;BME280_pressure;Samples;Min_cycle;Max_cycle;Signal;HPM_P1;HPM_P2
2023/04/20 00:01:46;;;;;;;0.10;0.10;;;;;;;;;;5034410;28;20275;-70
2023/04/20 00:04:14;;;;;;;0.10;0.10;;;;;;;;;;5045332;28;20224;-71
2023/04/20 00:06:42;;;;;;;0.17;0.17;;;;;;;;;;5034508;28;20439;-72
2023/04/20 00:09:09;;;;;;;0.10;0.10;;;;;;;;;;5045344;28;20208;-71
2023/04/20 00:11:36;;;;;;;0.10;0.10;;;;;;;;;;5034340;28;20244;-70
2023/04/20 00:14:02;;;;;;;0.10;0.10;;;;;;;;;;5045190;28;20200;-71
2023/04/20 00:16:29;;;;;;;0.13;0.13;;;;;;;;;;5034386;28;20461;-71
2023/04/20 00:18:55;;;;;;;0.10;0.10;;;;;;;;;;5044979;28;20245;-70
2023/04/20 00:21:23;;;;;;;0.10;0.10;;;;;;;;;;5034249;28;20265;-72
2023/04/20 00:23:50;;;;;;;0.10;0.10;;;;;;;;;;5044761;28;20223;-73
2023/04/20 00:26:17;;;;;;;0.10;0.10;;;;;;;;;;5034150;28;20240;-71
2023/04/20 00:28:44;;;;;;;0.10;0.10;;;;;;;;;;5044785;28;20508;-71
2023/04/20 00:31:10;;;;;;;0.13;0.13;;;;;;;;;;5034187;28;20241;-71
2023/04/20 00:33:36;;;;;;;0.20;0.20;;;;;;;;;;5044635;28;20399;-72
2023/04/20 00:36:03;;;;;;;0.10;0.10;;;;;;;;;;5034134;28;20308;-71
2023/04/20 00:38:29;;;;;;;0.10;0.10;;;;;;;;;;5044509;28;20205;-71
2023/04/20 00:40:57;;;;;;;0.10;0.10;;;;;;;;;;5034327;28;20300;-71
2023/04/20 00:43:24;;;;;;;0.10;0.10;;;;;;;;;;5044243;28;20228;-72
2023/04/20 00:45:50;;;;;;;0.10;0.10;;;;;;;;;;5034076;28;20247;-72
2023/04/20 00:48:17;;;;;;;0.97;0.97;;;;;;;;;;5044026;28;20197;-71
2023/04/20 00:50:44;;;;;;;0.10;0.10;;;;;;;;;;5034360;28;20256;-71
2023/04/20 00:53:11;;;;;;;0.20;0.20;;;;;;;;;;5043849;28;20205;-71
2023/04/20 00:55:38;;;;;;;0.10;0.10;;;;;;;;;;5034287;28;20245;-70
2023/04/20 00:58:05;;;;;;;0.10;0.10;;;;;;;;;;5043641;28;20267;-71
2023/04/20 01:00:32;;;;;;;0.20;0.20;;;;;;;;;;5034400;28;20253;-71
2023/04/20 01:02:59;;;;;;;0.17;0.17;;;;;;;;;;5043738;28;20200;-71
2023/04/20 01:05:25;;;;;;;0.30;0.30;;;;;;;;;;5033883;28;20432;-71
2023/04/20 01:07:52;;;;;;;0.10;0.10;;;;;;;;;;5043660;28;20206;-72
2023/04/20 01:10:18;;;;;;;0.13;0.13;;;;;;;;;;5034276;28;20209;-72
2023/04/20 01:12:44;;;;;;;0.13;0.13;;;;;;;;;;5043478;28;20444;-72
2023/04/20 01:15:12;;;;;;;0.10;0.10;;;;;;;;;;5034731;28;20380;-72
2023/04/20 01:17:39;;;;;;;0.20;0.20;;;;;;;;;;5043196;28;20242;-71
2023/04/20 01:20:07;;;;;;;0.20;0.20;;;;;;;;;;5044467;28;20275;-72
2023/04/20 01:22:42;;;;;;;0.20;0.20;;;;;;;;;;5032812;28;20256;-71
2023/04/20 01:25:08;;;;;;;0.20;0.20;;;;;;;;;;5044329;28;20228;-71
2023/04/20 01:27:35;;;;;;;0.10;0.10;;;;;;;;;;5032720;28;20311;-72
2023/04/20 01:30:01;;;;;;;0.17;0.17;;;;;;;;;;5044239;28;20211;-71
2023/04/20 01:32:27;;;;;;;0.10;0.10;;;;;;;;;;5032536;28;20272;-72
2023/04/20 01:34:54;;;;;;;0.20;0.20;;;;;;;;;;5044241;28;20533;-72
2023/04/20 01:37:20;;;;;;;0.10;0.10;;;;;;;;;;5032530;28;20246;-72
2023/04/20 01:39:48;;;;;;;0.10;0.10;;;;;;;;;;5044161;28;20237;-72
2023/04/20 01:42:14;;;;;;;0.20;0.20;;;;;;;;;;5032563;28;20492;-71
2023/04/20 01:44:41;;;;;;;0.10;0.10;;;;;;;;;;5043867;28;20292;-72
2023/04/20 01:47:07;;;;;;;0.10;0.10;;;;;;;;;;5032478;28;20316;-72
2023/04/20 01:49:34;;;;;;;0.10;0.10;;;;;;;;;;5043807;28;20280;-71
2023/04/20 01:52:00;;;;;;;0.20;0.20;;;;;;;;;;5032414;28;20263;-72
2023/04/20 01:54:26;;;;;;;0.10;0.10;;;;;;;;;;5043670;28;20271;-72
2023/04/20 01:56:54;;;;;;;0.20;0.20;;;;;;;;;;5032300;28;20307;-72
2023/04/20 01:59:21;;;;;;;0.10;0.10;;;;;;;;;;5043512;28;20406;-71
2023/04/20 02:01:47;;;;;;;0.17;0.17;;;;;;;;;;5032412;28;20440;-72
2023/04/20 02:04:14;;;;;;;0.17;0.17;;;;;;;;;;5043512;28;20229;-72
2023/04/20 02:06:40;;;;;;;0.10;0.10;;;;;;;;;;5032479;28;20325;-72
2023/04/20 02:09:08;;;;;;;0.10;0.10;;;;;;;;;;5046356;28;20238;-72
2023/04/20 02:11:34;;;;;;;0.20;0.20;;;;;;;;;;5039151;28;20241;-71
2023/04/20 02:14:02;;;;;;;0.20;0.20;;;;;;;;;;5050012;28;20239;-72
2023/04/20 02:16:29;;;;;;;0.20;0.20;;;;;;;;;;5039062;28;20304;-72
2023/04/20 02:18:55;;;;;;;0.10;0.10;;;;;;;;;;5049641;28;20207;-72
2023/04/20 02:21:22;;;;;;;0.10;0.10;;;;;;;;;;5039234;28;20237;-71
2023/04/20 02:23:48;;;;;;;0.10;0.10;;;;;;;;;;5049671;28;20291;-72
2023/04/20 02:26:15;;;;;;;0.10;0.10;;;;;;;;;;5039052;28;20256;-72
2023/04/20 02:28:42;;;;;;;0.20;0.20;;;;;;;;;;5049639;28;20488;-72
2023/04/20 02:31:09;;;;;;;0.10;0.10;;;;;;;;;;5039016;28;20240;-72
2023/04/20 02:33:36;;;;;;;0.10;0.10;;;;;;;;;;5049531;28;20209;-72
2023/04/20 02:36:02;;;;;;;0.10;0.10;;;;;;;;;;5039294;28;20319;-71
2023/04/20 02:38:29;;;;;;;0.10;0.10;;;;;;;;;;5049336;28;20272;-72
2023/04/20 02:40:55;;;;;;;0.10;0.10;;;;;;;;;;5039498;28;20239;-72
2023/04/20 02:43:22;;;;;;;0.20;0.20;;;;;;;;;;5049263;28;20442;-72
2023/04/20 02:45:48;;;;;;;0.10;0.10;;;;;;;;;;5039316;28;20245;-72
2023/04/20 02:48:16;;;;;;;0.20;0.20;;;;;;;;;;5049183;28;20205;-73
2023/04/20 02:50:42;;;;;;;0.10;0.10;;;;;;;;;;5039534;28;20246;-72
2023/04/20 02:53:09;;;;;;;0.20;0.20;;;;;;;;;;5049259;28;20264;-72
2023/04/20 02:55:35;;;;;;;0.20;0.20;;;;;;;;;;5039445;28;20297;-72
2023/04/20 02:58:03;;;;;;;0.10;0.10;;;;;;;;;;5048636;28;20234;-72
2023/04/20 03:00:30;;;;;;;1.43;1.43;;;;;;;;;;5039036;28;20282;-71
2023/04/20 03:02:56;;;;;;;0.13;0.13;;;;;;;;;;5049001;28;20265;-72
2023/04/20 03:05:24;;;;;;;0.10;0.10;;;;;;;;;;5039439;28;20256;-72
2023/04/20 03:07:50;;;;;;;0.10;0.10;;;;;;;;;;5048601;28;20428;-72
2023/04/20 03:10:16;;;;;;;0.10;0.10;;;;;;;;;;5039115;28;20453;-72
2023/04/20 03:12:43;;;;;;;0.10;0.10;;;;;;;;;;5048557;28;20481;-72
2023/04/20 03:15:10;;;;;;;1.97;1.90;;;;;;;;;;5049830;28;20516;-72
2023/04/20 03:17:36;;;;;;;0.10;0.10;;;;;;;;;;5021639;28;20455;-72
2023/04/20 03:20:03;;;;;;;0.10;0.10;;;;;;;;;;5048239;28;20535;-72
2023/04/20 03:22:31;;;;;;;0.20;0.20;;;;;;;;;;5034641;28;20240;-72
2023/04/20 03:24:57;;;;;;;0.20;0.20;;;;;;;;;;5046161;28;20406;-72
2023/04/20 03:27:24;;;;;;;0.10;0.10;;;;;;;;;;5034942;28;20299;-72
2023/04/20 03:29:51;;;;;;;0.20;0.20;;;;;;;;;;5046443;28;20233;-72
2023/04/20 03:32:17;;;;;;;0.20;0.20;;;;;;;;;;5034833;28;20241;-72
2023/04/20 03:34:43;;;;;;;0.10;0.10;;;;;;;;;;5046385;28;20504;-71
2023/04/20 03:37:10;;;;;;;0.10;0.10;;;;;;;;;;5034790;28;20490;-71
2023/04/20 03:39:37;;;;;;;0.10;0.10;;;;;;;;;;5046345;28;20204;-72
2023/04/20 03:42:05;;;;;;;0.20;0.20;;;;;;;;;;5034695;28;20256;-72
2023/04/20 03:44:31;;;;;;;0.20;0.20;;;;;;;;;;5045933;28;20275;-72
2023/04/20 03:46:57;;;;;;;0.20;0.20;;;;;;;;;;5034710;28;20268;-72
2023/04/20 03:49:24;;;;;;;0.17;0.17;;;;;;;;;;5045564;28;20276;-71
2023/04/20 03:51:50;;;;;;;0.10;0.10;;;;;;;;;;5034623;28;20299;-71
2023/04/20 03:54:17;;;;;;;0.10;0.10;;;;;;;;;;5045655;28;20280;-72
2023/04/20 03:56:45;;;;;;;0.20;0.20;;;;;;;;;;5034425;28;20501;-71
2023/04/20 03:59:11;;;;;;;0.20;0.20;;;;;;;;;;5045406;28;20224;-72
2023/04/20 04:01:38;;;;;;;0.10;0.10;;;;;;;;;;5034587;28;20257;-72
2023/04/20 04:04:04;;;;;;;0.10;0.10;;;;;;;;;;5045383;28;20204;-72
2023/04/20 04:06:31;;;;;;;0.10;0.10;;;;;;;;;;5034568;28;20256;-71
2023/04/20 04:08:57;;;;;;;0.10;0.10;;;;;;;;;;5045389;28;20267;-71
2023/04/20 04:11:24;;;;;;;0.10;0.10;;;;;;;;;;5034426;28;20300;-72
2023/04/20 04:13:52;;;;;;;0.10;0.10;;;;;;;;;;5045222;28;20218;-72
2023/04/20 04:16:19;;;;;;;0.10;0.10;;;;;;;;;;5034570;28;20279;-72
2023/04/20 04:18:45;;;;;;;0.10;0.10;;;;;;;;;;5045044;28;20239;-71
2023/04/20 04:21:11;;;;;;;0.10;0.10;;;;;;;;;;5034613;28;20263;-72
2023/04/20 04:23:38;;;;;;;0.20;0.20;;;;;;;;;;5044885;28;20210;-72
2023/04/20 04:26:04;;;;;;;0.10;0.10;;;;;;;;;;5034307;28;20240;-72
2023/04/20 04:28:31;;;;;;;0.10;0.10;;;;;;;;;;5044710;28;20246;-72
2023/04/20 04:31:00;;;;;;;0.10;0.10;;;;;;;;;;5034523;28;20323;-72
2023/04/20 04:33:26;;;;;;;0.10;0.10;;;;;;;;;;5043874;28;20206;-71
2023/04/20 04:35:54;;;;;;;0.20;0.20;;;;;;;;;;5034381;28;20295;-72
2023/04/20 04:38:21;;;;;;;0.13;0.13;;;;;;;;;;5044363;28;20226;-72
2023/04/20 04:40:48;;;;;;;0.10;0.10;;;;;;;;;;5034269;28;20267;-72
2023/04/20 04:43:15;;;;;;;0.10;0.10;;;;;;;;;;5044029;28;20212;-72
2023/04/20 04:45:41;;;;;;;0.20;0.20;;;;;;;;;;5034498;28;20247;-71
2023/04/20 04:48:10;;;;;;;0.20;0.20;;;;;;;;;;5044162;28;20452;-72
2023/04/20 04:50:37;;;;;;;0.20;0.20;;;;;;;;;;5034707;28;20308;-72
2023/04/20 04:53:03;;;;;;;0.10;0.10;;;;;;;;;;5043662;28;20447;-71
2023/04/20 04:55:30;;;;;;;0.10;0.10;;;;;;;;;;5034608;28;20261;-72
2023/04/20 04:57:56;;;;;;;0.17;0.17;;;;;;;;;;5043699;28;20233;-71
2023/04/20 05:00:24;;;;;;;0.10;0.10;;;;;;;;;;5034425;28;20280;-72
2023/04/20 05:02:51;;;;;;;0.10;0.10;;;;;;;;;;5043767;28;20254;-72
2023/04/20 05:05:19;;;;;;;0.10;0.10;;;;;;;;;;5034308;28;20291;-72
2023/04/20 05:07:46;;;;;;;0.10;0.10;;;;;;;;;;5043644;28;20196;-72
2023/04/20 05:10:12;;;;;;;0.10;0.10;;;;;;;;;;5034430;28;20236;-72
2023/04/20 05:12:38;;;;;;;0.10;0.10;;;;;;;;;;5043071;28;20277;-72
2023/04/20 05:15:05;;;;;;;0.67;0.67;;;;;;;;;;5044664;28;20251;-72
2023/04/20 05:17:31;;;;;;;0.17;0.17;;;;;;;;;;5032881;28;20251;-72
2023/04/20 05:19:58;;;;;;;2.30;2.20;;;;;;;;;;5044413;28;20277;-72
2023/04/20 05:22:25;;;;;;;0.10;0.10;;;;;;;;;;5032773;28;20262;-72
2023/04/20 05:24:52;;;;;;;0.10;0.10;;;;;;;;;;5044298;28;20260;-72
2023/04/20 05:27:18;;;;;;;0.20;0.20;;;;;;;;;;5032652;28;20239;-72
2023/04/20 05:29:44;;;;;;;0.10;0.10;;;;;;;;;;5043851;28;20226;-71
2023/04/20 05:32:11;;;;;;;0.10;0.10;;;;;;;;;;5032607;28;20458;-72
2023/04/20 05:34:37;;;;;;;0.10;0.10;;;;;;;;;;5044081;28;20232;-72
2023/04/20 05:37:04;;;;;;;0.10;0.10;;;;;;;;;;5032614;28;20239;-72
2023/04/20 05:39:31;;;;;;;0.10;0.10;;;;;;;;;;5043740;28;20279;-71
2023/04/20 05:41:58;;;;;;;0.10;0.10;;;;;;;;;;5032605;28;20256;-71
2023/04/20 05:44:24;;;;;;;0.20;0.20;;;;;;;;;;5042918;28;20277;-72
2023/04/20 05:46:50;;;;;;;0.10;0.10;;;;;;;;;;5032483;28;20241;-72
2023/04/20 05:49:17;;;;;;;0.10;0.10;;;;;;;;;;5043498;28;20276;-72
2023/04/20 05:51:43;;;;;;;0.10;0.10;;;;;;;;;;5032622;28;20241;-72
2023/04/20 05:54:10;;;;;;;0.10;0.10;;;;;;;;;;5043319;28;20466;-72
2023/04/20 05:56:37;;;;;;;0.10;0.10;;;;;;;;;;5032380;28;20251;-73
2023/04/20 05:59:04;;;;;;;0.10;0.10;;;;;;;;;;5043225;28;20217;-73
2023/04/20 06:01:30;;;;;;;0.10;0.10;;;;;;;;;;5032406;28;20311;-73
2023/04/20 06:03:57;;;;;;;0.10;0.10;;;;;;;;;;5043429;28;20207;-73
2023/04/20 06:06:23;;;;;;;0.10;0.10;;;;;;;;;;5032496;28;20241;-73
2023/04/20 06:08:51;;;;;;;0.10;0.10;;;;;;;;;;5043070;28;20204;-72
2023/04/20 06:11:17;;;;;;;0.10;0.10;;;;;;;;;;5032581;28;20352;-73
2023/04/20 06:13:45;;;;;;;0.10;0.10;;;;;;;;;;5043004;28;20276;-73
2023/04/20 06:16:11;;;;;;;0.10;0.10;;;;;;;;;;5032513;28;20302;-71
2023/04/20 06:18:37;;;;;;;0.10;0.10;;;;;;;;;;5043075;28;20378;-73
2023/04/20 06:21:04;;;;;;;0.10;0.10;;;;;;;;;;5032513;28;20240;-71
2023/04/20 06:23:30;;;;;;;0.10;0.10;;;;;;;;;;5042606;28;20234;-70
2023/04/20 06:25:56;;;;;;;0.10;0.10;;;;;;;;;;5032387;28;20252;-71
2023/04/20 06:28:23;;;;;;;0.10;0.10;;;;;;;;;;5042442;28;20281;-70
2023/04/20 06:30:50;;;;;;;0.10;0.10;;;;;;;;;;5032592;28;20253;-71
2023/04/20 06:33:17;;;;;;;0.10;0.10;;;;;;;;;;5042818;28;20410;-71
2023/04/20 06:35:43;;;;;;;0.10;0.10;;;;;;;;;;5032982;28;20245;-71
2023/04/20 06:38:10;;;;;;;0.10;0.10;;;;;;;;;;5042789;28;20231;-70
2023/04/20 06:40:36;;;;;;;0.10;0.10;;;;;;;;;;5032924;28;20310;-71
2023/04/20 06:43:02;;;;;;;0.10;0.10;;;;;;;;;;5042584;28;20340;-70
2023/04/20 06:45:29;;;;;;;0.10;0.10;;;;;;;;;;5032932;28;20377;-71
2023/04/20 06:47:56;;;;;;;0.10;0.10;;;;;;;;;;5042293;28;20264;-71
2023/04/20 06:50:23;;;;;;;0.10;0.10;;;;;;;;;;5032977;28;20446;-74
2023/04/20 06:52:49;;;;;;;0.20;0.20;;;;;;;;;;5042434;28;20446;-77
2023/04/20 06:55:17;;;;;;;0.10;0.10;;;;;;;;;;5034825;28;20204;-74
2023/04/20 06:57:43;;;;;;;0.10;0.10;;;;;;;;;;5045971;28;20241;-73
2023/04/20 07:00:11;;;;;;;0.10;0.10;;;;;;;;;;5038982;28;20250;-75
2023/04/20 07:02:44;;;;;;;0.10;0.10;;;;;;;;;;5045650;28;20218;-76
2023/04/20 07:05:16;;;;;;;0.20;0.20;;;;;;;;;;5036636;28;20550;-74
2023/04/20 07:07:43;;;;;;;0.10;0.10;;;;;;;;;;5045874;28;20257;-74
2023/04/20 07:10:10;;;;;;;0.10;0.10;;;;;;;;;;5036590;28;20276;-73
2023/04/20 07:12:36;;;;;;;0.10;0.10;;;;;;;;;;5045800;28;20211;-74
2023/04/20 07:15:03;;;;;;;0.10;0.10;;;;;;;;;;5046924;28;20213;-74
2023/04/20 07:17:30;;;;;;;0.10;0.10;;;;;;;;;;5035157;28;20252;-75
2023/04/20 07:19:57;;;;;;;0.10;0.10;;;;;;;;;;5046818;28;20427;-75
2023/04/20 07:22:24;;;;;;;0.10;0.10;;;;;;;;;;5035100;28;20244;-74
2023/04/20 07:24:51;;;;;;;0.10;0.10;;;;;;;;;;5046254;28;20238;-75
2023/04/20 07:27:17;;;;;;;0.10;0.10;;;;;;;;;;5035019;28;20313;-75
2023/04/20 07:29:44;;;;;;;0.10;0.10;;;;;;;;;;5046501;28;20208;-75
2023/04/20 07:32:10;;;;;;;0.10;0.10;;;;;;;;;;5035050;28;20265;-75
2023/04/20 07:34:37;;;;;;;0.10;0.10;;;;;;;;;;5046092;28;20215;-75
2023/04/20 07:37:03;;;;;;;0.10;0.10;;;;;;;;;;5035022;28;20486;-75
2023/04/20 07:39:31;;;;;;;0.10;0.10;;;;;;;;;;5046388;28;20376;-75
2023/04/20 07:41:57;;;;;;;0.10;0.10;;;;;;;;;;5035183;28;20244;-76
2023/04/20 07:44:24;;;;;;;0.10;0.10;;;;;;;;;;5046888;28;20204;-76
2023/04/20 07:46:50;;;;;;;0.10;0.10;;;;;;;;;;5035321;28;20271;-75
2023/04/20 07:49:17;;;;;;;0.10;0.10;;;;;;;;;;5045976;28;20211;-74
2023/04/20 07:51:44;;;;;;;0.10;0.10;;;;;;;;;;5034871;28;20240;-79
2023/04/20 07:54:10;;;;;;;0.10;0.10;;;;;;;;;;5046171;28;20236;-73
2023/04/20 07:56:38;;;;;;;0.10;0.10;;;;;;;;;;5034735;28;20255;-73
2023/04/20 07:59:04;;;;;;;0.13;0.13;;;;;;;;;;5045460;28;20474;-73
2023/04/20 08:01:31;;;;;;;0.10;0.10;;;;;;;;;;5035105;28;20527;-73
2023/04/20 08:03:57;;;;;;;0.10;0.10;;;;;;;;;;5046086;28;20212;-74
2023/04/20 08:06:23;;;;;;;0.10;0.10;;;;;;;;;;5035223;28;20247;-76
2023/04/20 08:08:50;;;;;;;0.10;0.10;;;;;;;;;;5045923;28;20215;-75
2023/04/20 08:11:16;;;;;;;0.10;0.10;;;;;;;;;;5035470;28;20329;-76
2023/04/20 08:13:44;;;;;;;0.10;0.10;;;;;;;;;;5045122;28;20264;-76
2023/04/20 08:16:10;;;;;;;0.10;0.10;;;;;;;;;;5034611;28;20474;-76
2023/04/20 08:18:37;;;;;;;0.10;0.10;;;;;;;;;;5044984;28;20270;-77
2023/04/20 08:21:03;;;;;;;0.10;0.10;;;;;;;;;;5035652;28;20315;-76
2023/04/20 08:23:30;;;;;;;0.10;0.10;;;;;;;;;;5044810;28;20589;-76
2023/04/20 08:25:56;;;;;;;0.10;0.10;;;;;;;;;;5017662;28;20250;-76
2023/04/20 08:28:23;;;;;;;0.10;0.10;;;;;;;;;;5045504;28;20374;-76
2023/04/20 08:30:51;;;;;;;0.10;0.10;;;;;;;;;;5035322;28;20241;-77
2023/04/20 08:33:18;;;;;;;0.10;0.10;;;;;;;;;;5045511;28;20220;-77
2023/04/20 08:35:45;;;;;;;0.10;0.10;;;;;;;;;;5034759;28;20249;-77
2023/04/20 08:38:11;;;;;;;0.10;0.10;;;;;;;;;;5044876;28;20386;-76
2023/04/20 08:40:37;;;;;;;0.10;0.10;;;;;;;;;;5035162;28;20240;-75
2023/04/20 08:43:04;;;;;;;0.10;0.10;;;;;;;;;;5044666;28;20208;-75
2023/04/20 08:45:30;;;;;;;0.10;0.10;;;;;;;;;;5035164;28;20245;-75
2023/04/20 08:48:01;;;;;;;0.10;0.10;;;;;;;;;;5044592;28;20193;-76
2023/04/20 08:50:27;;;;;;;0.10;0.10;;;;;;;;;;5034727;28;20275;-75
2023/04/20 08:52:54;;;;;;;0.10;0.10;;;;;;;;;;5044006;28;20234;-76
2023/04/20 08:55:20;;;;;;;0.10;0.10;;;;;;;;;;5034633;28;20209;-76
2023/04/20 08:57:47;;;;;;;0.10;0.10;;;;;;;;;;5044930;28;20276;-76
2023/04/20 09:00:15;;;;;;;0.10;0.10;;;;;;;;;;5035486;28;20456;-76
2023/04/20 09:02:51;;;;;;;0.10;0.10;;;;;;;;;;5044472;28;20499;-76
2023/04/20 09:05:26;;;;;;;0.10;0.10;;;;;;;;;;5034586;28;20265;-76
2023/04/20 09:07:53;;;;;;;0.00;0.00;;;;;;;;;;5044067;28;20195;-76
2023/04/20 09:10:19;;;;;;;0.00;0.00;;;;;;;;;;5035791;28;20207;-76
2023/04/20 09:12:46;;;;;;;0.10;0.10;;;;;;;;;;5044569;28;20218;-76
2023/04/20 09:15:23;;;;;;;0.00;0.00;;;;;;;;;;5033982;28;20207;-75
2023/04/20 09:17:50;;;;;;;0.10;0.10;;;;;;;;;;5043301;28;20262;-76
2023/04/20 09:20:16;;;;;;;0.03;0.03;;;;;;;;;;5034385;28;20499;-76
2023/04/20 09:22:44;;;;;;;0.00;0.00;;;;;;;;;;5044256;28;20269;-78
2023/04/20 09:25:14;;;;;;;0.00;0.00;;;;;;;;;;5034226;28;20235;-75
2023/04/20 09:27:40;;;;;;;0.00;0.00;;;;;;;;;;5043281;28;20255;-76
2023/04/20 09:30:08;;;;;;;0.00;0.00;;;;;;;;;;5043816;28;20205;-76
2023/04/20 09:32:34;;;;;;;0.00;0.00;;;;;;;;;;5017451;28;20221;-77
2023/04/20 09:35:01;;;;;;;0.00;0.00;;;;;;;;;;5045106;28;20205;-73
2023/04/20 09:37:27;;;;;;;0.00;0.00;;;;;;;;;;5032580;28;20236;-73
2023/04/20 09:39:56;;;;;;;0.00;0.00;;;;;;;;;;5044124;28;20239;-73
2023/04/20 09:42:26;;;;;;;0.00;0.00;;;;;;;;;;5032454;28;20243;-73
2023/04/20 09:44:53;;;;;;;0.00;0.00;;;;;;;;;;5044012;28;20204;-75
2023/04/20 09:47:19;;;;;;;0.00;0.00;;;;;;;;;;5032344;28;20311;-75
2023/04/20 09:49:46;;;;;;;0.00;0.00;;;;;;;;;;5043858;28;20271;-73
2023/04/20 09:52:15;;;;;;;0.00;0.00;;;;;;;;;;5032364;28;20442;-75
2023/04/20 09:54:42;;;;;;;0.00;0.00;;;;;;;;;;5043869;28;20220;-75
2023/04/20 09:57:12;;;;;;;0.00;0.00;;;;;;;;;;5032419;28;20513;-75
2023/04/20 09:59:39;;;;;;;0.00;0.00;;;;;;;;;;5044132;28;20446;-75
2023/04/20 10:02:08;;;;;;;0.00;0.00;;;;;;;;;;5032559;28;20244;-76
2023/04/20 10:04:34;;;;;;;0.00;0.00;;;;;;;;;;5043449;28;20231;-76
2023/04/20 10:07:04;;;;;;;0.00;0.00;;;;;;;;;;5032074;28;20242;-76
2023/04/20 10:09:32;;;;;;;0.00;0.00;;;;;;;;;;5043814;28;20205;-75
2023/04/20 10:12:05;;;;;;;0.00;0.00;;;;;;;;;;5032330;28;20461;-74
2023/04/20 10:14:34;;;;;;;0.00;0.00;;;;;;;;;;5043381;28;20238;-75
2023/04/20 10:17:01;;;;;;;0.10;0.10;;;;;;;;;;5032277;28;20235;-75
2023/04/20 10:19:36;;;;;;;0.03;0.03;;;;;;;;;;5043693;28;20252;-75
2023/04/20 10:22:03;;;;;;;0.00;0.00;;;;;;;;;;5032161;28;20265;-75
2023/04/20 10:24:29;;;;;;;0.10;0.10;;;;;;;;;;5043435;28;20206;-75
2023/04/20 10:26:56;;;;;;;0.40;0.40;;;;;;;;;;5032117;28;20255;-75
2023/04/20 10:29:24;;;;;;;0.10;0.10;;;;;;;;;;5043601;28;20277;-76
2023/04/20 10:31:52;;;;;;;0.03;0.03;;;;;;;;;;5036091;28;20244;-75
2023/04/20 10:34:29;;;;;;;0.10;0.10;;;;;;;;;;5047481;28;20244;-75
2023/04/20 10:36:55;;;;;;;0.00;0.00;;;;;;;;;;5036059;28;20304;-74
2023/04/20 10:39:21;;;;;;;0.08;0.08;;;;;;;;;;5047123;28;20204;-76
2023/04/20 10:41:54;;;;;;;0.10;0.10;;;;;;;;;;5036040;28;20248;-76
2023/04/20 10:44:20;;;;;;;0.03;0.03;;;;;;;;;;5047290;28;20206;-75
2023/04/20 10:46:50;;;;;;;0.10;0.10;;;;;;;;;;5035803;28;20320;-76
2023/04/20 10:49:18;;;;;;;0.05;0.05;;;;;;;;;;5047285;28;20378;-76
2023/04/20 10:51:48;;;;;;;0.10;0.10;;;;;;;;;;5036380;28;20241;-76
2023/04/20 10:54:14;;;;;;;0.10;0.10;;;;;;;;;;5047140;28;20216;-76
2023/04/20 10:56:41;;;;;;;0.00;0.00;;;;;;;;;;5036306;28;20269;-75
2023/04/20 10:59:08;;;;;;;0.00;0.00;;;;;;;;;;5046804;28;20287;-75
2023/04/20 11:01:35;;;;;;;0.00;0.00;;;;;;;;;;5036151;28;20255;-75
2023/04/20 11:04:01;;;;;;;0.03;0.03;;;;;;;;;;5046723;28;20205;-75
2023/04/20 11:06:30;;;;;;;0.00;0.00;;;;;;;;;;5035775;28;20482;-75
2023/04/20 11:08:56;;;;;;;0.10;0.10;;;;;;;;;;5046336;28;20212;-73
2023/04/20 11:11:26;;;;;;;0.10;0.10;;;;;;;;;;5035761;28;20302;-73
2023/04/20 11:13:52;;;;;;;0.10;0.10;;;;;;;;;;5046425;28;20394;-74
2023/04/20 11:16:19;;;;;;;0.10;0.10;;;;;;;;;;5035552;28;20341;-73
2023/04/20 11:18:50;;;;;;;0.77;0.77;;;;;;;;;;5045972;28;20409;-73
2023/04/20 11:21:16;;;;;;;0.10;0.10;;;;;;;;;;5035642;28;20633;-73
2023/04/20 11:23:44;;;;;;;0.10;0.10;;;;;;;;;;5046157;28;20535;-73
2023/04/20 11:26:10;;;;;;;0.10;0.10;;;;;;;;;;5035432;28;20259;-73
2023/04/20 11:28:37;;;;;;;0.10;0.10;;;;;;;;;;5045758;28;20234;-73
2023/04/20 11:31:04;;;;;;;0.10;0.10;;;;;;;;;;5035471;28;20252;-73
2023/04/20 11:33:31;;;;;;;0.10;0.10;;;;;;;;;;5045788;28;20232;-73
2023/04/20 11:35:58;;;;;;;0.30;0.30;;;;;;;;;;5035371;28;20325;-73
2023/04/20 11:38:29;;;;;;;0.10;0.10;;;;;;;;;;5045372;28;20268;-74
2023/04/20 11:40:59;;;;;;;0.10;0.10;;;;;;;;;;5034797;28;20244;-73
2023/04/20 11:43:25;;;;;;;0.10;0.10;;;;;;;;;;5045040;28;20275;-73
2023/04/20 11:45:52;;;;;;;0.10;0.10;;;;;;;;;;5035488;28;20514;-73
2023/04/20 11:48:18;;;;;;;0.10;0.10;;;;;;;;;;5045387;28;20468;-73
2023/04/20 11:50:45;;;;;;;0.10;0.10;;;;;;;;;;5035187;28;20242;-73
2023/04/20 11:53:13;;;;;;;0.10;0.10;;;;;;;;;;5045225;28;20204;-74
2023/04/20 11:55:40;;;;;;;0.10;0.10;;;;;;;;;;5035616;28;20241;-73
2023/04/20 11:58:08;;;;;;;0.10;0.10;;;;;;;;;;5044898;28;20267;-72
2023/04/20 12:00:34;;;;;;;0.10;0.10;;;;;;;;;;5035099;28;20267;-73
2023/04/20 12:03:01;;;;;;;0.10;0.10;;;;;;;;;;5044968;28;20228;-73
2023/04/20 12:05:28;;;;;;;0.10;0.10;;;;;;;;;;5035505;28;20241;-73
2023/04/20 12:07:54;;;;;;;0.10;0.10;;;;;;;;;;5044852;28;20388;-73
2023/04/20 12:10:20;;;;;;;0.10;0.10;;;;;;;;;;5035407;28;20232;-73
2023/04/20 12:12:47;;;;;;;0.10;0.10;;;;;;;;;;5044811;28;20220;-73
2023/04/20 12:15:15;;;;;;;0.10;0.10;;;;;;;;;;5035383;28;20205;-73
2023/04/20 12:17:42;;;;;;;0.10;0.10;;;;;;;;;;5044372;28;20195;-73
2023/04/20 12:20:10;;;;;;;0.10;0.10;;;;;;;;;;5037168;28;20367;-74
2023/04/20 12:22:37;;;;;;;0.10;0.10;;;;;;;;;;5044384;28;20406;-73
2023/04/20 12:25:04;;;;;;;0.10;0.10;;;;;;;;;;5045659;28;20394;-75
2023/04/20 12:27:30;;;;;;;0.10;0.10;;;;;;;;;;5033820;28;20239;-74
2023/04/20 12:29:56;;;;;;;0.10;0.10;;;;;;;;;;5045394;28;20206;-74
2023/04/20 12:32:24;;;;;;;0.10;0.10;;;;;;;;;;5033667;28;20341;-75
2023/04/20 12:34:51;;;;;;;0.10;0.10;;;;;;;;;;5045396;28;20215;-74
2023/04/20 12:37:19;;;;;;;0.10;0.10;;;;;;;;;;5033638;28;20238;-74
2023/04/20 12:39:45;;;;;;;0.47;0.47;;;;;;;;;;5045267;28;20219;-75
2023/04/20 12:42:11;;;;;;;0.10;0.10;;;;;;;;;;5033639;28;20257;-75
2023/04/20 12:44:38;;;;;;;0.10;0.10;;;;;;;;;;5045214;28;20245;-75
2023/04/20 12:47:04;;;;;;;0.10;0.10;;;;;;;;;;5033503;28;20240;-75
2023/04/20 12:49:32;;;;;;;0.10;0.10;;;;;;;;;;5045060;28;20252;-75
2023/04/20 12:51:58;;;;;;;0.10;0.10;;;;;;;;;;5033573;28;20262;-74
2023/04/20 12:54:24;;;;;;;0.10;0.10;;;;;;;;;;5044653;28;20205;-74
2023/04/20 12:56:51;;;;;;;0.10;0.10;;;;;;;;;;5033467;28;20265;-74
2023/04/20 12:59:17;;;;;;;0.10;0.10;;;;;;;;;;5044456;28;20285;-75
2023/04/20 13:01:43;;;;;;;0.10;0.10;;;;;;;;;;5033462;28;20244;-75
2023/04/20 13:04:10;;;;;;;0.10;0.10;;;;;;;;;;5044546;28;20497;-75
2023/04/20 13:06:37;;;;;;;0.10;0.10;;;;;;;;;;5033190;28;20321;-75
2023/04/20 13:09:04;;;;;;;0.10;0.10;;;;;;;;;;5044069;28;20211;-75
2023/04/20 13:11:31;;;;;;;0.10;0.10;;;;;;;;;;5033308;28;20246;-75
2023/04/20 13:13:58;;;;;;;0.10;0.10;;;;;;;;;;5044060;28;20400;-74
2023/04/20 13:16:24;;;;;;;0.10;0.10;;;;;;;;;;5033395;28;20242;-74
2023/04/20 13:18:51;;;;;;;0.10;0.10;;;;;;;;;;5043893;28;20228;-74
2023/04/20 13:21:17;;;;;;;0.10;0.10;;;;;;;;;;5033181;28;20264;-74
2023/04/20 13:23:45;;;;;;;0.10;0.10;;;;;;;;;;5043617;28;20220;-75
2023/04/20 13:26:11;;;;;;;0.20;0.20;;;;;;;;;;5033426;28;20318;-74
2023/04/20 13:28:38;;;;;;;0.10;0.10;;;;;;;;;;5043652;28;20224;-71
2023/04/20 13:31:04;;;;;;;0.10;0.10;;;;;;;;;;5034003;28;20240;-72
2023/04/20 13:33:31;;;;;;;0.10;0.10;;;;;;;;;;5043526;28;20205;-71
2023/04/20 13:35:57;;;;;;;0.10;0.10;;;;;;;;;;5033185;28;20265;-72
2023/04/20 13:38:24;;;;;;;0.10;0.10;;;;;;;;;;5043378;28;20461;-72
2023/04/20 13:40:51;;;;;;;0.10;0.10;;;;;;;;;;5033521;28;20449;-71
2023/04/20 13:43:18;;;;;;;1.10;1.10;;;;;;;;;;5043337;28;20452;-71
2023/04/20 13:45:44;;;;;;;0.10;0.10;;;;;;;;;;5033418;28;20308;-71
2023/04/20 13:48:11;;;;;;;0.10;0.10;;;;;;;;;;5043137;28;20225;-72
2023/04/20 13:50:37;;;;;;;0.10;0.10;;;;;;;;;;5033429;28;20259;-76
2023/04/20 13:53:03;;;;;;;0.10;0.10;;;;;;;;;;5043049;28;20259;-76
2023/04/20 13:55:30;;;;;;;0.10;0.10;;;;;;;;;;5033471;28;20271;-75
2023/04/20 13:57:58;;;;;;;0.10;0.10;;;;;;;;;;5042629;28;20229;-75
2023/04/20 14:00:25;;;;;;;0.10;0.10;;;;;;;;;;5033398;28;20227;-75
2023/04/20 14:02:51;;;;;;;0.10;0.10;;;;;;;;;;5042711;28;20204;-76
2023/04/20 14:05:17;;;;;;;0.10;0.10;;;;;;;;;;5032833;28;20243;-76
2023/04/20 14:07:44;;;;;;;0.10;0.10;;;;;;;;;;5042732;28;20469;-76
2023/04/20 14:10:10;;;;;;;0.10;0.10;;;;;;;;;;5033602;28;20298;-76
2023/04/20 14:12:36;;;;;;;0.10;0.10;;;;;;;;;;5042604;28;20276;-76
2023/04/20 14:15:05;;;;;;;0.10;0.10;;;;;;;;;;5043815;28;20248;-76
2023/04/20 14:17:31;;;;;;;0.10;0.10;;;;;;;;;;5032190;28;20283;-76
2023/04/20 14:19:57;;;;;;;0.10;0.10;;;;;;;;;;5043804;28;20279;-76
2023/04/20 14:22:24;;;;;;;0.10;0.10;;;;;;;;;;5032044;28;20240;-76
2023/04/20 14:24:50;;;;;;;0.10;0.10;;;;;;;;;;5043688;28;20205;-75
2023/04/20 14:27:17;;;;;;;0.10;0.10;;;;;;;;;;5031886;28;20267;-75
2023/04/20 14:29:43;;;;;;;0.10;0.10;;;;;;;;;;5043381;28;20221;-76
2023/04/20 14:32:11;;;;;;;0.10;0.10;;;;;;;;;;5031988;28;20252;-76
2023/04/20 14:34:37;;;;;;;0.10;0.10;;;;;;;;;;5043582;28;20276;-76
2023/04/20 14:37:04;;;;;;;0.10;0.10;;;;;;;;;;5031876;28;20328;-76
2023/04/20 14:39:30;;;;;;;0.10;0.10;;;;;;;;;;5043473;28;20275;-76
2023/04/20 14:41:56;;;;;;;0.10;0.10;;;;;;;;;;5032047;28;20253;-76